createdAt,value
2018-04-24T00:02:19.984Z,95571
2018-04-24T00:04:51.420Z,95573
2018-04-24T00:07:22.566Z,95575
2018-04-24T00:09:54.278Z,95580
2018-04-24T00:12:25.327Z,95573
2018-04-24T00:14:56.445Z,95572
2018-04-24T00:17:27.575Z,95569
2018-04-24T00:19:58.799Z,95569
2018-04-24T00:22:31.296Z,95562
2018-04-24T00:25:02.296Z,95564
2018-04-24T00:27:33.613Z,95561
2018-04-24T00:30:04.688Z,95562
2018-04-24T00:32:35.817Z,95563
2018-04-24T00:35:07.042Z,95566
2018-04-24T00:37:38.333Z,95569
2018-04-24T00:40:09.498Z,95570
2018-04-24T00:42:40.633Z,95576
2018-04-24T00:45:11.777Z,95573
2018-04-24T00:47:42.733Z,95580
2018-04-24T00:50:13.754Z,95579
2018-04-24T00:52:44.827Z,95573
2018-04-24T00:55:15.932Z,95572
2018-04-24T00:57:47.161Z,95566
2018-04-24T01:00:18.290Z,95567
2018-04-24T01:02:49.344Z,95560
2018-04-24T01:05:20.441Z,95571
2018-04-24T01:07:51.581Z,95573
2018-04-24T01:10:22.724Z,95584
2018-04-24T01:12:53.792Z,95587
2018-04-24T01:15:24.980Z,95589
2018-04-24T01:17:56.106Z,95590
2018-04-24T01:20:27.698Z,95588
2018-04-24T01:22:58.884Z,95589
2018-04-24T01:25:30.027Z,95574
2018-04-24T01:28:02.522Z,95580
2018-04-24T01:30:34.759Z,95585
2018-04-24T01:33:05.954Z,95580
2018-04-24T01:35:37.675Z,95577
2018-04-24T01:38:08.891Z,95584
2018-04-24T01:40:40.224Z,95583
2018-04-24T01:43:11.292Z,95585
2018-04-24T01:45:42.332Z,95587
2018-04-24T01:48:13.359Z,95588
2018-04-24T01:50:44.497Z,95591
2018-04-24T01:53:15.656Z,95597
2018-04-24T01:55:46.749Z,95597
2018-04-24T01:58:18.033Z,95593
2018-04-24T02:00:49.537Z,95589
2018-04-24T02:03:20.809Z,95588
2018-04-24T02:05:52.017Z,95586
2018-04-24T02:08:23.840Z,95591
2018-04-24T02:10:54.919Z,95586
2018-04-24T02:13:26.014Z,95590
2018-04-24T02:15:57.422Z,95586
2018-04-24T02:18:28.563Z,95588
2018-04-24T02:20:59.660Z,95584
2018-04-24T02:23:30.738Z,95581
2018-04-24T02:26:02.676Z,95588
2018-04-24T02:28:33.741Z,95583
2018-04-24T02:31:05.844Z,95574
2018-04-24T02:33:36.931Z,95582
2018-04-24T02:36:07.888Z,95582
2018-04-24T02:38:38.991Z,95578
2018-04-24T02:41:10.014Z,95580
2018-04-24T02:43:41.249Z,95586
2018-04-24T02:46:12.533Z,95582
2018-04-24T02:48:43.920Z,95576
2018-04-24T02:51:15.054Z,95575
2018-04-24T02:53:46.268Z,95573
2018-04-24T02:56:17.569Z,95574
2018-04-24T02:58:48.822Z,95572
2018-04-24T03:01:20.730Z,95578
2018-04-24T03:03:51.775Z,95571
2018-04-24T03:06:22.977Z,95570
2018-04-24T03:08:54.077Z,95565
2018-04-24T03:11:25.715Z,95566
2018-04-24T03:13:57.094Z,95576
2018-04-24T03:16:28.280Z,95575
2018-04-24T03:18:59.287Z,95569
2018-04-24T03:21:30.278Z,95575
2018-04-24T03:24:01.622Z,95579
2018-04-24T03:26:33.275Z,95577
2018-04-24T03:29:04.554Z,95579
2018-04-24T03:31:35.687Z,95579
2018-04-24T03:34:06.820Z,95576
2018-04-24T03:36:37.852Z,95573
2018-04-24T03:39:09.028Z,95576
2018-04-24T03:41:40.099Z,95574
2018-04-24T03:44:11.302Z,95574
2018-04-24T03:46:42.399Z,95573
2018-04-24T03:49:13.606Z,95573
2018-04-24T03:51:44.714Z,95571
2018-04-24T03:54:16.028Z,95570
2018-04-24T03:56:47.136Z,95566
2018-04-24T03:59:18.397Z,95567
2018-04-24T04:01:49.513Z,95564
2018-04-24T04:04:20.879Z,95570
2018-04-24T04:06:51.823Z,95567
2018-04-24T04:09:23.203Z,95570
2018-04-24T04:11:54.418Z,95565
2018-04-24T04:14:25.612Z,95569
2018-04-24T04:16:57.241Z,95572
2018-04-24T04:20:41.505Z,95576
2018-04-24T04:24:26.894Z,95578
2018-04-24T04:26:58.143Z,95574
2018-04-24T04:29:29.414Z,95574
2018-04-24T04:32:01.490Z,95572
2018-04-24T04:34:33.557Z,95570
2018-04-24T04:37:04.789Z,95573
2018-04-24T04:39:35.920Z,95570
2018-04-24T04:42:07.925Z,95572
2018-04-24T04:44:42.204Z,95577
2018-04-24T04:47:15.059Z,95583
2018-04-24T04:49:47.972Z,95588
2018-04-24T04:52:26.613Z,95587
2018-04-24T04:55:08.423Z,95585
2018-04-24T05:07:18.671Z,95585
2018-04-24T05:09:49.701Z,95580
2018-04-24T05:12:20.364Z,95593
2018-04-24T05:14:51.052Z,95600
2018-04-24T05:17:21.664Z,95600
2018-04-24T05:19:52.448Z,95600
2018-04-24T05:22:23.210Z,95600
2018-04-24T05:24:55.255Z,95601
2018-04-24T05:27:26.004Z,95601
2018-04-24T05:29:56.587Z,95585
2018-04-24T05:32:27.301Z,95590
2018-04-24T05:34:57.991Z,95591
2018-04-24T05:37:28.691Z,95591
2018-04-24T05:39:59.428Z,95586
2018-04-24T05:42:30.304Z,95597
2018-04-24T05:45:01.072Z,95587
2018-04-24T05:47:31.856Z,95586
2018-04-24T05:50:02.489Z,95587
2018-04-24T05:52:33.228Z,95589
2018-04-24T05:55:03.905Z,95584
2018-04-24T05:57:34.540Z,95588
2018-04-24T06:00:05.277Z,95582
2018-04-24T06:02:36.022Z,95586
2018-04-24T06:05:07.283Z,95590
2018-04-24T06:07:37.779Z,95588
2018-04-24T06:10:08.785Z,95579
2018-04-24T06:12:39.759Z,95578
2018-04-24T06:15:10.939Z,95577
2018-04-24T06:17:41.637Z,95575
2018-04-24T06:20:12.293Z,95580
2018-04-24T06:22:43.004Z,95588
2018-04-24T06:25:13.716Z,95591
2018-04-24T06:27:44.778Z,95596
2018-04-24T06:30:15.818Z,95598
2018-04-24T06:32:46.505Z,95595
2018-04-24T06:35:17.289Z,95598
2018-04-24T06:37:47.902Z,95600
2018-04-24T06:40:18.489Z,95600
2018-04-24T06:42:49.211Z,95605
2018-04-24T06:45:19.962Z,95615
2018-04-24T06:47:50.829Z,95598
2018-04-24T06:50:21.440Z,95608
2018-04-24T06:52:52.103Z,95599
2018-04-24T06:55:22.930Z,95596
2018-04-24T06:57:53.967Z,95606
2018-04-24T07:00:24.601Z,95610
2018-04-24T07:02:55.288Z,95611
2018-04-24T07:05:26.439Z,95620
2018-04-24T07:07:57.178Z,95615
2018-04-24T07:10:28.025Z,95626
2018-04-24T07:12:58.679Z,95616
2018-04-24T07:15:29.552Z,95616
2018-04-24T07:18:00.198Z,95616
2018-04-24T07:20:31.316Z,95618
2018-04-24T07:23:02.035Z,95616
2018-04-24T07:25:32.932Z,95619
2018-04-24T07:28:03.581Z,95615
2018-04-24T07:30:38.841Z,95625
2018-04-24T07:33:10.360Z,95625
2018-04-24T07:35:40.988Z,95623
2018-04-24T07:38:11.678Z,95621
2018-04-24T07:40:42.375Z,95623
2018-04-24T07:43:13.521Z,95631
2018-04-24T07:45:44.224Z,95632
2018-04-24T07:48:15.045Z,95625
2018-04-24T07:50:48.772Z,95621
2018-04-24T07:53:20.444Z,95616
2018-04-24T07:55:52.297Z,95617
2018-04-24T07:58:23.133Z,95620
2018-04-24T08:00:54.128Z,95625
2018-04-24T08:03:24.682Z,95620
2018-04-24T08:05:55.880Z,95616
2018-04-24T08:08:30.923Z,95618
2018-04-24T08:11:02.880Z,95633
2018-04-24T08:13:33.632Z,95616
2018-04-24T08:16:04.288Z,95622
2018-04-24T08:18:35.005Z,95615
2018-04-24T08:21:05.754Z,95615
2018-04-24T08:23:36.934Z,95617
2018-04-24T08:26:07.532Z,95606
2018-04-24T08:28:38.241Z,95613
2018-04-24T08:31:08.976Z,95618
2018-04-24T08:33:39.616Z,95610
2018-04-24T08:36:11.374Z,95619
2018-04-24T08:38:42.268Z,95619
2018-04-24T08:41:13.039Z,95622
2018-04-24T08:43:43.946Z,95631
2018-04-24T08:46:14.703Z,95619
2018-04-24T08:48:45.779Z,95619
2018-04-24T08:51:16.300Z,95630
2018-04-24T08:53:46.865Z,95619
2018-04-24T08:56:17.835Z,95623
2018-04-24T08:58:48.561Z,95635
2018-04-24T09:01:19.311Z,95620
2018-04-24T09:03:50.429Z,95620
2018-04-24T09:06:21.207Z,95613
2018-04-24T09:08:51.832Z,95610
2018-04-24T09:11:22.807Z,95608
2018-04-24T09:13:53.468Z,95609
2018-04-24T09:16:24.196Z,95601
2018-04-24T09:18:54.767Z,95608
2018-04-24T09:21:25.476Z,95612
2018-04-24T09:23:56.165Z,95599
2018-04-24T09:26:27.375Z,95611
2018-04-24T09:28:58.080Z,95604
2018-04-24T09:31:32.795Z,95612
2018-04-24T09:34:03.479Z,95605
2018-04-24T09:36:34.288Z,95604
2018-04-24T09:39:05.938Z,95610
2018-04-24T09:41:37.070Z,95606
2018-04-24T09:44:07.706Z,95601
2018-04-24T09:46:38.351Z,95603
2018-04-24T09:49:09.511Z,95602
2018-04-24T09:51:42.669Z,95596
2018-04-24T09:54:13.931Z,95598
2018-04-24T09:56:45.659Z,95614
2018-04-24T09:59:16.576Z,95611
2018-04-24T10:01:47.355Z,95608
2018-04-24T10:04:17.948Z,95605
2018-04-24T10:06:48.628Z,95612
2018-04-24T10:09:19.364Z,95619
2018-04-24T10:11:50.271Z,95611
2018-04-24T10:14:20.785Z,95609
2018-04-24T10:16:53.164Z,95608
2018-04-24T10:19:25.858Z,95611
2018-04-24T10:21:57.635Z,95599
2018-04-24T10:24:28.191Z,95606
2018-04-24T10:26:58.973Z,95611
2018-04-24T10:29:29.626Z,95614
2018-04-24T10:32:00.281Z,95594
2018-04-24T10:34:30.988Z,95600
2018-04-24T10:37:01.983Z,95591
2018-04-24T10:39:32.809Z,95589
2018-04-24T10:42:03.594Z,95585
2018-04-24T10:44:34.398Z,95574
2018-04-24T10:47:04.979Z,95582
2018-04-24T10:49:35.821Z,95577
2018-04-24T10:52:07.162Z,95582
2018-04-24T10:54:40.108Z,95591
2018-04-24T10:57:10.960Z,95580
2018-04-24T10:59:41.612Z,95590
2018-04-24T11:02:12.212Z,95590
2018-04-24T11:04:42.730Z,95573
2018-04-24T11:07:13.647Z,95567
2018-04-24T11:09:44.220Z,95564
2018-04-24T11:12:16.880Z,95560
2018-04-24T11:14:47.568Z,95554
2018-04-24T11:17:21.349Z,95560
2018-04-24T11:19:52.780Z,95562
2018-04-24T11:22:24.093Z,95564
2018-04-24T11:24:55.273Z,95566
2018-04-24T11:27:25.944Z,95564
2018-04-24T11:29:56.603Z,95571
2018-04-24T11:32:27.130Z,95561
2018-04-24T11:34:58.064Z,95562
2018-04-24T11:37:29.188Z,95558
2018-04-24T11:40:01.277Z,95574
2018-04-24T11:42:32.399Z,95564
2018-04-24T11:45:03.239Z,95563
2018-04-24T11:47:36.304Z,95561
2018-04-24T11:50:06.996Z,95558
2018-04-24T11:52:37.960Z,95566
2018-04-24T11:55:08.476Z,95551
2018-04-24T11:57:39.246Z,95550
2018-04-24T12:00:10.069Z,95557
2018-04-24T12:02:40.973Z,95546
2018-04-24T12:05:12.049Z,95546
2018-04-24T12:07:42.686Z,95538
2018-04-24T12:10:13.497Z,95544
2018-04-24T12:12:44.728Z,95540
2018-04-24T12:15:15.180Z,95546
2018-04-24T12:17:45.809Z,95544
2018-04-24T12:20:16.495Z,95545
2018-04-24T12:22:50.609Z,95538
2018-04-24T12:25:21.329Z,95536
2018-04-24T12:27:52.057Z,95529
2018-04-24T12:30:22.638Z,95538
2018-04-24T12:32:53.464Z,95521
2018-04-24T12:35:24.160Z,95524
2018-04-24T12:37:54.870Z,95529
2018-04-24T12:40:25.589Z,95514
2018-04-24T12:42:56.231Z,95514
2018-04-24T12:45:26.990Z,95509
2018-04-24T12:47:57.648Z,95505
2018-04-24T12:50:28.201Z,95513
2018-04-24T12:52:58.891Z,95504
2018-04-24T12:55:29.468Z,95514
2018-04-24T12:58:00.126Z,95509
2018-04-24T13:00:30.823Z,95494
2018-04-24T13:03:01.596Z,95494
2018-04-24T13:05:32.368Z,95495
2018-04-24T13:08:02.986Z,95491
2018-04-24T13:10:33.657Z,95491
2018-04-24T13:13:04.367Z,95479
2018-04-24T13:15:35.058Z,95479
2018-04-24T13:18:05.676Z,95471
2018-04-24T13:20:36.424Z,95465
2018-04-24T13:23:07.021Z,95469
2018-04-24T13:25:37.677Z,95464
2018-04-24T13:28:08.456Z,95461
2018-04-24T13:30:39.320Z,95455
2018-04-24T13:33:10.008Z,95454
2018-04-24T13:35:40.715Z,95453
2018-04-24T13:38:11.425Z,95455
2018-04-24T13:40:42.224Z,95456
2018-04-24T13:43:17.433Z,95452
2018-04-24T13:45:50.761Z,95448
2018-04-24T13:48:30.547Z,95448
2018-04-24T13:51:22.316Z,95459
2018-04-24T13:53:59.851Z,95448
2018-04-24T13:56:30.554Z,95448
2018-04-24T13:59:01.398Z,95444
2018-04-24T14:01:32.343Z,95440
2018-04-24T14:04:03.187Z,95437
2018-04-24T14:06:33.881Z,95438
2018-04-24T14:09:04.744Z,95438
2018-04-24T14:11:35.830Z,95433
2018-04-24T14:14:06.640Z,95446
2018-04-24T14:16:37.341Z,95442
2018-04-24T14:19:08.517Z,95443
2018-04-24T14:21:39.252Z,95438
2018-04-24T14:24:10.003Z,95440
2018-04-24T14:26:40.669Z,95431
2018-04-24T14:29:11.299Z,95433
2018-04-24T14:31:41.860Z,95428
2018-04-24T14:34:12.856Z,95431
2018-04-24T14:36:43.480Z,95423
2018-04-24T14:39:14.565Z,95424
2018-04-24T14:41:45.189Z,95417
2018-04-24T14:44:15.748Z,95416
2018-04-24T14:46:46.446Z,95416
2018-04-24T14:49:17.556Z,95417
2018-04-24T14:51:48.637Z,95409
2018-04-24T14:54:19.300Z,95414
2018-04-24T14:57:01.409Z,95400
2018-04-24T14:59:33.192Z,95401
2018-04-24T15:02:07.732Z,95392
2018-04-24T15:04:43.847Z,95393
2018-04-24T15:07:14.741Z,95386
2018-04-24T15:09:46.025Z,95379
2018-04-24T15:12:16.661Z,95380
2018-04-24T15:14:47.323Z,95381
2018-04-24T15:17:18.160Z,95379
2018-04-24T15:19:48.779Z,95378
2018-04-24T15:22:19.632Z,95378
2018-04-24T15:24:50.314Z,95382
2018-04-24T15:27:21.044Z,95377
2018-04-24T15:29:51.896Z,95376
2018-04-24T15:32:22.550Z,95372
2018-04-24T15:34:53.744Z,95377
2018-04-24T15:37:24.674Z,95373
2018-04-24T15:39:55.412Z,95371
2018-04-24T15:42:25.984Z,95367
2018-04-24T15:44:56.668Z,95361
2018-04-24T15:47:27.564Z,95356
2018-04-24T15:49:58.200Z,95362
2018-04-24T15:52:28.988Z,95360
2018-04-24T15:54:59.695Z,95358
2018-04-24T15:57:30.229Z,95363
2018-04-24T16:00:01.069Z,95357
2018-04-24T16:02:31.824Z,95360
2018-04-24T16:05:02.744Z,95357
2018-04-24T16:07:33.464Z,95363
2018-04-24T16:10:04.335Z,95361
2018-04-24T16:12:34.809Z,95357
2018-04-24T16:15:05.515Z,95350
2018-04-24T16:17:36.144Z,95349
2018-04-24T16:20:06.820Z,95340
2018-04-24T16:22:37.439Z,95335
2018-04-24T16:25:08.255Z,95334
2018-04-24T16:27:39.077Z,95331
2018-04-24T16:30:09.997Z,95325
2018-04-24T16:32:40.644Z,95327
2018-04-24T16:35:11.691Z,95329
2018-04-24T16:37:42.430Z,95330
2018-04-24T16:40:13.221Z,95337
2018-04-24T16:42:43.849Z,95335
2018-04-24T16:45:14.465Z,95335
2018-04-24T16:47:45.116Z,95333
2018-04-24T16:50:15.887Z,95331
2018-04-24T16:52:46.415Z,95336
2018-04-24T16:55:17.210Z,95337
2018-04-24T16:57:48.148Z,95331
2018-04-24T17:00:18.824Z,95339
2018-04-24T17:02:49.467Z,95336
2018-04-24T17:05:20.465Z,95336
2018-04-24T17:07:51.630Z,95338
2018-04-24T17:10:23.146Z,95325
2018-04-24T17:12:54.136Z,95332
2018-04-24T17:15:24.808Z,95329
2018-04-24T17:17:55.485Z,95330
2018-04-24T17:20:26.363Z,95329
2018-04-24T17:22:57.400Z,95332
2018-04-24T17:25:28.386Z,95332
2018-04-24T17:27:59.107Z,95336
2018-04-24T17:30:29.787Z,95333
2018-04-24T17:33:00.455Z,95333
2018-04-24T17:35:31.523Z,95332
2018-04-24T17:38:02.578Z,95330
2018-04-24T17:40:33.433Z,95330
2018-04-24T17:43:04.104Z,95336
2018-04-24T17:45:34.933Z,95334
2018-04-24T17:48:05.541Z,95335
2018-04-24T17:50:36.373Z,95343
2018-04-24T17:53:07.183Z,95347
2018-04-24T17:55:38.147Z,95342
2018-04-24T17:58:10.411Z,95345
2018-04-24T18:00:41.729Z,95347
2018-04-24T18:03:13.420Z,95341
2018-04-24T18:05:44.441Z,95340
2018-04-24T18:08:14.973Z,95344
2018-04-24T18:10:45.745Z,95339
2018-04-24T18:13:16.381Z,95333
2018-04-24T18:15:47.333Z,95333
2018-04-24T18:18:17.847Z,95332
2018-04-24T18:20:48.878Z,95333
2018-04-24T18:23:19.821Z,95331
2018-04-24T18:25:50.473Z,95332
2018-04-24T18:28:21.937Z,95337
2018-04-24T18:30:53.019Z,95334
2018-04-24T18:33:23.592Z,95331
2018-04-24T18:35:54.852Z,95334
2018-04-24T18:38:25.838Z,95340
2018-04-24T18:40:56.796Z,95337
2018-04-24T18:43:27.426Z,95342
2018-04-24T18:45:58.407Z,95344
2018-04-24T18:48:29.231Z,95341
2018-04-24T18:51:00.867Z,95344
2018-04-24T18:53:31.485Z,95344
2018-04-24T18:56:02.441Z,95340
2018-04-24T18:58:32.943Z,95341
2018-04-24T19:01:03.556Z,95337
2018-04-24T19:03:34.199Z,95337
2018-04-24T19:06:05.194Z,95348
2018-04-24T19:08:35.924Z,95348
2018-04-24T19:11:06.590Z,95345
2018-04-24T19:13:37.716Z,95352
2018-04-24T19:16:08.492Z,95337
2018-04-24T19:18:43.073Z,95334
2018-04-24T19:21:13.795Z,95334
2018-04-24T19:23:44.642Z,95334
2018-04-24T19:26:15.171Z,95320
2018-04-24T19:28:46.341Z,95326
2018-04-24T19:31:21.517Z,95328
2018-04-24T19:33:52.187Z,95323
2018-04-24T19:36:23.100Z,95328
2018-04-24T19:38:57.746Z,95332
2018-04-24T19:42:01.043Z,95332
2018-04-24T19:44:31.641Z,95332
2018-04-24T19:47:02.168Z,95330
2018-04-24T19:50:41.342Z,95333
2018-04-24T19:53:11.992Z,95336
2018-04-24T19:55:42.523Z,95338
2018-04-24T19:58:13.226Z,95334
2018-04-24T20:00:43.837Z,95330
2018-04-24T20:03:14.925Z,95326
2018-04-24T20:05:45.615Z,95317
2018-04-24T20:08:17.592Z,95315
2018-04-24T20:10:48.463Z,95309
2018-04-24T20:13:19.306Z,95310
2018-04-24T20:15:49.903Z,95305
2018-04-24T20:18:20.656Z,95312
2018-04-24T20:20:51.179Z,95310
2018-04-24T20:23:22.061Z,95306
2018-04-24T20:25:52.645Z,95297
2018-04-24T20:28:23.581Z,95300
2018-04-24T20:30:54.149Z,95303
2018-04-24T20:33:25.178Z,95297
2018-04-24T20:35:55.748Z,95288
2018-04-24T20:38:27.081Z,95288
2018-04-24T20:40:57.728Z,95289
2018-04-24T20:43:28.431Z,95286
2018-04-24T20:45:59.167Z,95286
2018-04-24T20:48:29.868Z,95286
2018-04-24T20:51:00.577Z,95285
2018-04-24T20:53:31.357Z,95286
2018-04-24T20:56:01.932Z,95288
2018-04-24T20:58:32.756Z,95285
2018-04-24T21:01:03.507Z,95283
2018-04-24T21:03:34.504Z,95282
2018-04-24T21:06:05.311Z,95283
2018-04-24T21:08:35.957Z,95277
2018-04-24T21:11:06.636Z,95284
2018-04-24T21:13:37.552Z,95279
2018-04-24T21:16:08.156Z,95277
2018-04-24T21:18:38.914Z,95270
2018-04-24T21:21:09.537Z,95271
2018-04-24T21:23:40.420Z,95268
2018-04-24T21:26:11.279Z,95268
2018-04-24T21:28:42.024Z,95261
2018-04-24T21:31:12.627Z,95260
2018-04-24T21:33:43.412Z,95262
2018-04-24T21:36:14.029Z,95258
2018-04-24T21:38:45.017Z,95258
2018-04-24T21:41:15.780Z,95267
2018-04-24T21:43:46.492Z,95256
2018-04-24T21:46:17.023Z,95251
2018-04-24T21:48:47.734Z,95240
2018-04-24T21:51:18.288Z,95243
2018-04-24T21:53:49.145Z,95245
2018-04-24T21:56:19.749Z,95239
2018-04-24T21:58:50.452Z,95238
2018-04-24T22:01:21.209Z,95230
2018-04-24T22:03:51.942Z,95233
2018-04-24T22:06:22.555Z,95226
2018-04-24T22:08:53.449Z,95223
2018-04-24T22:11:24.029Z,95221
2018-04-24T22:13:54.646Z,95221
2018-04-24T22:16:25.229Z,95215
2018-04-24T22:18:55.968Z,95212
2018-04-24T22:21:26.601Z,95204
2018-04-24T22:23:57.361Z,95204
2018-04-24T22:26:28.220Z,95199
2018-04-24T22:28:58.960Z,95197
2018-04-24T22:31:29.538Z,95203
2018-04-24T22:34:00.218Z,95200
2018-04-24T22:36:30.861Z,95198
2018-04-24T22:39:01.942Z,95198
2018-04-24T22:41:32.637Z,95195
2018-04-24T22:44:03.923Z,95191
2018-04-24T22:46:34.471Z,95188
2018-04-24T22:49:05.146Z,95187
2018-04-24T22:51:35.758Z,95184
2018-04-24T22:54:06.538Z,95184
2018-04-24T22:56:37.228Z,95187
2018-04-24T22:59:07.993Z,95183
2018-04-24T23:01:38.511Z,95186
2018-04-24T23:04:09.189Z,95185
2018-04-24T23:06:39.848Z,95178
2018-04-24T23:09:10.683Z,95174
2018-04-24T23:11:52.109Z,95174
2018-04-24T23:14:39.152Z,95173
2018-04-24T23:17:26.714Z,95168
2018-04-24T23:20:14.206Z,95161
2018-04-24T23:22:44.600Z,95162
2018-04-24T23:25:15.301Z,95160
2018-04-24T23:27:45.965Z,95155
2018-04-24T23:30:16.677Z,95155
2018-04-24T23:32:47.457Z,95152
2018-04-24T23:35:18.193Z,95151
2018-04-24T23:37:48.884Z,95149
2018-04-24T23:40:20.039Z,95149
2018-04-24T23:42:50.671Z,95147
2018-04-24T23:45:21.492Z,95149
2018-04-24T23:47:52.068Z,95142
2018-04-24T23:50:22.723Z,95139
2018-04-24T23:52:53.282Z,95140
2018-04-24T23:55:23.994Z,95139
2018-04-24T23:57:55.172Z,95137
